Time;durP1;ratioP1;P1;durP2;ratioP2;P2;SDS_P1;SDS_P2;PMS_P1;PMS_P2;Temp;Humidity;BMP_temperature;BMP_pressure;BME280_temperature;BME280_humidity;BME280_pressure;Samples;Min_cycle;Max_cycle;Signal;HPM_P1;HPM_P2
2023/12/11 00:01:39;;;;;;;10.18;2.60;;;12.80;99.90;;;;;;5076979;28;20180;-74
2023/12/11 00:04:05;;;;;;;7.53;2.80;;;12.80;99.90;;;;;;5080045;28;20572;-74
2023/12/11 00:06:31;;;;;;;8.03;3.60;;;12.80;99.90;;;;;;5081925;28;20609;-74
2023/12/11 00:08:57;;;;;;;18.63;3.70;;;12.80;99.90;;;;;;5087154;28;20278;-74
2023/12/11 00:11:22;;;;;;;12.67;2.13;;;12.80;99.90;;;;;;5072459;28;20180;-74
2023/12/11 00:13:48;;;;;;;14.07;2.63;;;12.80;99.90;;;;;;5060015;28;20183;-74
2023/12/11 00:16:17;;;;;;;8.77;3.00;;;12.80;99.90;;;;;;5077990;28;20275;-74
2023/12/11 00:18:43;;;;;;;9.17;3.50;;;12.80;99.90;;;;;;5066472;28;20196;-74
2023/12/11 00:21:09;;;;;;;12.50;4.60;;;12.90;99.90;;;;;;5075471;28;21177;-74
2023/12/11 00:23:35;;;;;;;17.63;3.97;;;12.90;99.90;;;;;;5075183;28;20205;-74
2023/12/11 00:26:00;;;;;;;9.57;3.43;;;13.00;99.90;;;;;;5058616;28;20178;-74
2023/12/11 00:28:26;;;;;;;11.13;3.60;;;13.00;99.90;;;;;;5093258;28;20632;-74
2023/12/11 00:30:52;;;;;;;8.30;2.33;;;13.00;99.90;;;;;;5093395;28;20183;-74
2023/12/11 00:33:18;;;;;;;11.50;2.40;;;13.10;99.90;;;;;;5075069;28;20176;-74
2023/12/11 00:35:45;;;;;;;11.60;2.27;;;13.10;99.90;;;;;;5092587;28;20224;-74
2023/12/11 00:38:12;;;;;;;15.80;3.10;;;13.10;99.90;;;;;;5064406;28;20618;-74
2023/12/11 00:40:38;;;;;;;18.23;3.00;;;13.10;99.90;;;;;;5071288;28;20654;-74
2023/12/11 00:43:04;;;;;;;10.30;2.90;;;13.10;99.90;;;;;;5084529;28;20672;-74
2023/12/11 00:45:29;;;;;;;11.07;2.25;;;13.10;99.90;;;;;;5074971;28;21250;-74
2023/12/11 00:47:55;;;;;;;17.43;2.33;;;13.10;99.90;;;;;;5092970;28;20216;-73
2023/12/11 00:50:21;;;;;;;13.50;2.67;;;13.00;99.90;;;;;;5074756;28;20184;-74
2023/12/11 00:52:47;;;;;;;8.30;1.63;;;13.00;99.90;;;;;;5074548;28;20195;-74
2023/12/11 00:55:13;;;;;;;10.10;2.40;;;13.00;99.90;;;;;;5074981;28;20209;-73
2023/12/11 00:57:39;;;;;;;11.10;2.27;;;12.90;99.90;;;;;;5092867;28;20981;-74
2023/12/11 01:00:05;;;;;;;11.40;2.50;;;12.90;99.90;;;;;;5057737;28;20257;-74
2023/12/11 01:02:31;;;;;;;13.23;2.40;;;12.90;99.90;;;;;;5092649;28;20203;-74
2023/12/11 01:04:57;;;;;;;10.63;2.27;;;12.90;99.90;;;;;;5110370;22;20697;-78
2023/12/11 01:07:23;;;;;;;8.43;1.50;;;12.90;99.90;;;;;;5071319;28;20188;-78
2023/12/11 01:09:49;;;;;;;10.20;2.60;;;12.80;99.90;;;;;;5054929;28;20604;-78
2023/12/11 01:12:15;;;;;;;8.03;1.70;;;12.80;99.90;;;;;;5054436;28;20179;-78
2023/12/11 01:14:40;;;;;;;11.13;2.30;;;12.80;99.90;;;;;;5065687;28;20257;-78
2023/12/11 01:17:06;;;;;;;12.57;2.53;;;12.70;99.90;;;;;;5092069;28;20628;-78
2023/12/11 01:19:32;;;;;;;11.87;2.23;;;12.70;99.90;;;;;;5070698;28;20197;-79
2023/12/11 01:21:57;;;;;;;10.93;1.63;;;12.70;99.90;;;;;;5072817;28;20180;-79
2023/12/11 01:24:23;;;;;;;8.03;1.60;;;12.70;99.90;;;;;;5073717;28;20175;-79
2023/12/11 01:26:49;;;;;;;14.03;2.97;;;12.70;99.90;;;;;;5058411;28;20171;-79
2023/12/11 01:29:14;;;;;;;9.33;1.93;;;12.70;99.90;;;;;;5070294;28;20567;-79
2023/12/11 01:31:40;;;;;;;12.00;2.03;;;12.70;99.90;;;;;;5080181;28;20175;-79
2023/12/11 01:34:06;;;;;;;7.70;1.97;;;12.70;99.90;;;;;;5073589;28;20284;-79
2023/12/11 01:36:32;;;;;;;10.00;1.70;;;12.70;99.90;;;;;;5070552;28;20782;-78
2023/12/11 01:38:57;;;;;;;7.83;1.40;;;12.70;99.90;;;;;;5070536;28;20299;-78
2023/12/11 01:41:23;;;;;;;9.30;2.57;;;12.70;99.90;;;;;;5053738;28;20184;-78
2023/12/11 01:43:53;;;;;;;14.67;2.57;;;12.70;99.90;;;;;;5068121;28;20168;-78
2023/12/11 01:46:20;;;;;;;15.53;2.43;;;12.80;99.90;;;;;;5070218;28;21019;-78
2023/12/11 01:48:48;;;;;;;11.77;2.33;;;12.80;99.90;;;;;;5070416;28;20585;-78
2023/12/11 01:51:16;;;;;;;12.80;1.33;;;12.90;99.90;;;;;;5069980;28;21131;-78
2023/12/11 01:53:44;;;;;;;9.83;2.07;;;12.90;99.90;;;;;;5069566;28;20588;-78
2023/12/11 01:56:10;;;;;;;10.40;3.00;;;12.90;99.90;;;;;;5073360;28;21256;-78
2023/12/11 01:58:37;;;;;;;6.30;1.40;;;13.00;99.90;;;;;;5091345;28;20712;-78
2023/12/11 02:01:03;;;;;;;10.87;2.00;;;13.00;99.90;;;;;;5072337;28;20689;-78
2023/12/11 02:03:29;;;;;;;4.70;1.47;;;13.00;99.90;;;;;;5064629;28;20589;-77
2023/12/11 02:05:55;;;;;;;8.47;1.87;;;13.00;99.90;;;;;;5072692;28;20637;-78
2023/12/11 02:08:20;;;;;;;13.00;2.13;;;13.00;99.90;;;;;;5054107;28;20641;-78
2023/12/11 02:10:46;;;;;;;12.97;1.80;;;13.00;99.90;;;;;;5073098;28;21138;-78
2023/12/11 02:13:13;;;;;;;5.40;1.50;;;13.00;99.90;;;;;;5091496;28;20585;-78
2023/12/11 02:15:44;;;;;;;8.73;2.30;;;13.10;99.90;;;;;;5073198;28;20613;-78
2023/12/11 02:18:11;;;;;;;14.23;2.10;;;13.10;99.90;;;;;;5044915;28;20686;-78
2023/12/11 02:20:38;;;;;;;9.90;1.67;;;13.20;99.90;;;;;;5068129;28;20757;-78
2023/12/11 02:23:08;;;;;;;11.93;1.90;;;13.20;99.90;;;;;;5072463;28;20582;-78
2023/12/11 02:25:35;;;;;;;10.37;1.90;;;13.20;99.90;;;;;;5072847;28;20628;-78
2023/12/11 02:28:02;;;;;;;9.53;3.50;;;13.20;99.90;;;;;;5072738;28;20574;-78
2023/12/11 02:30:31;;;;;;;11.37;2.60;;;13.30;99.90;;;;;;5069305;28;20668;-78
2023/12/11 02:32:57;;;;;;;10.07;2.43;;;13.30;99.90;;;;;;5088810;28;20596;-78
2023/12/11 02:35:22;;;;;;;6.67;1.37;;;13.30;99.90;;;;;;5072816;28;20663;-78
2023/12/11 02:37:48;;;;;;;12.23;1.70;;;13.40;99.90;;;;;;5039399;28;20180;-78
2023/12/11 02:40:14;;;;;;;8.70;2.13;;;13.40;99.90;;;;;;5051733;28;20234;-78
2023/12/11 02:42:48;;;;;;;6.00;1.90;;;13.40;99.90;;;;;;5065673;28;20198;-78
2023/12/11 02:45:15;;;;;;;11.07;2.20;;;13.40;99.90;;;;;;5031777;28;20187;-78
2023/12/11 02:47:41;;;;;;;10.40;1.80;;;13.40;99.90;;;;;;5056139;28;20573;-78
2023/12/11 02:50:07;;;;;;;7.17;1.90;;;13.40;99.90;;;;;;5072341;28;21131;-78
2023/12/11 02:52:32;;;;;;;11.33;2.10;;;13.50;99.90;;;;;;5090632;28;20529;-78
2023/12/11 02:54:58;;;;;;;9.13;2.00;;;13.50;99.90;;;;;;5090366;28;20700;-77
2023/12/11 02:57:24;;;;;;;13.43;2.60;;;13.40;99.90;;;;;;5069351;28;20279;-77
2023/12/11 02:59:49;;;;;;;11.93;2.70;;;13.40;99.90;;;;;;5069391;28;20299;-77
2023/12/11 03:02:15;;;;;;;10.70;2.03;;;13.30;99.90;;;;;;5090743;28;20174;-77
2023/12/11 03:04:41;;;;;;;10.00;2.07;;;13.30;99.90;;;;;;5068898;28;20292;-78
2023/12/11 03:07:07;;;;;;;9.70;2.80;;;13.30;99.90;;;;;;5071873;28;20199;-77
2023/12/11 03:09:32;;;;;;;8.40;1.70;;;13.30;99.90;;;;;;5072542;28;20577;-78
2023/12/11 03:11:58;;;;;;;12.07;2.00;;;13.30;99.90;;;;;;5072339;28;20236;-78
2023/12/11 03:14:24;;;;;;;12.57;2.03;;;13.30;99.90;;;;;;5072193;28;20176;-78
2023/12/11 03:16:50;;;;;;;11.13;1.60;;;13.30;99.90;;;;;;5090465;28;20175;-78
2023/12/11 03:19:16;;;;;;;6.70;1.23;;;13.30;99.90;;;;;;5073341;28;20229;-78
2023/12/11 03:21:42;;;;;;;12.53;2.20;;;13.30;99.90;;;;;;5090680;28;20252;-77
2023/12/11 03:24:08;;;;;;;12.67;2.00;;;13.30;99.90;;;;;;5071888;28;20625;-78
2023/12/11 03:26:34;;;;;;;12.27;2.10;;;13.30;99.90;;;;;;5072397;28;20621;-78
2023/12/11 03:28:59;;;;;;;7.17;1.67;;;13.30;99.90;;;;;;5047063;28;21208;-78
2023/12/11 03:31:26;;;;;;;6.13;1.80;;;13.30;99.90;;;;;;5055471;28;20172;-77
2023/12/11 03:33:52;;;;;;;8.90;1.63;;;13.30;99.90;;;;;;5090019;28;20935;-77
2023/12/11 03:36:18;;;;;;;12.93;2.13;;;13.30;99.90;;;;;;5072100;28;20199;-78
2023/12/11 03:38:43;;;;;;;18.20;2.47;;;13.30;99.90;;;;;;5071896;28;20233;-77
2023/12/11 03:41:09;;;;;;;13.00;1.60;;;13.30;99.90;;;;;;5090189;28;20171;-78
2023/12/11 03:43:35;;;;;;;10.87;2.60;;;13.30;99.90;;;;;;5071920;28;20203;-78
2023/12/11 03:46:03;;;;;;;7.93;2.37;;;13.30;99.90;;;;;;5071834;28;20199;-78
2023/12/11 03:48:29;;;;;;;10.10;2.17;;;13.30;99.90;;;;;;5072106;28;20172;-78
2023/12/11 03:50:55;;;;;;;15.10;1.80;;;13.40;99.90;;;;;;5069324;28;20605;-78
2023/12/11 03:53:21;;;;;;;8.63;1.80;;;13.40;99.90;;;;;;5076021;28;20585;-78
2023/12/11 03:55:47;;;;;;;7.67;1.70;;;13.30;99.90;;;;;;5094170;28;20599;-78
2023/12/11 03:58:13;;;;;;;5.87;1.63;;;13.30;99.90;;;;;;5075914;28;20563;-77
2023/12/11 04:00:39;;;;;;;11.53;1.83;;;13.30;99.90;;;;;;5075618;28;20725;-77
2023/12/11 04:03:05;;;;;;;7.47;1.70;;;13.30;99.90;;;;;;5073828;28;20656;-77
2023/12/11 04:05:30;;;;;;;7.93;1.93;;;13.30;99.90;;;;;;5093856;28;20199;-78
2023/12/11 04:07:56;;;;;;;9.67;1.73;;;13.30;99.90;;;;;;5072257;28;20173;-78
2023/12/11 04:10:22;;;;;;;10.00;2.70;;;13.30;99.90;;;;;;5075721;28;20234;-78
2023/12/11 04:12:47;;;;;;;9.83;1.33;;;13.30;99.90;;;;;;5058627;28;20280;-78
2023/12/11 04:15:13;;;;;;;8.60;1.80;;;13.40;99.90;;;;;;5075370;28;20191;-78
2023/12/11 04:17:42;;;;;;;7.00;1.87;;;13.40;99.90;;;;;;5075335;28;20172;-78
2023/12/11 04:20:08;;;;;;;10.07;2.60;;;13.40;99.90;;;;;;5073593;28;20250;-78
2023/12/11 04:22:34;;;;;;;5.03;1.23;;;13.40;99.90;;;;;;5075088;28;20573;-78
2023/12/11 04:24:59;;;;;;;10.77;1.70;;;13.40;99.90;;;;;;5093142;28;21187;-78
2023/12/11 04:27:25;;;;;;;5.90;1.40;;;13.40;99.90;;;;;;5071894;28;20179;-78
2023/12/11 04:29:51;;;;;;;4.37;1.10;;;13.40;99.90;;;;;;5068205;28;20681;-77
2023/12/11 04:32:17;;;;;;;8.57;1.73;;;13.30;99.90;;;;;;5093210;28;20175;-78
2023/12/11 04:34:43;;;;;;;8.00;1.40;;;13.30;99.90;;;;;;5071890;28;20207;-77
2023/12/11 04:37:09;;;;;;;16.40;2.63;;;13.30;99.90;;;;;;5040387;28;20582;-78
2023/12/11 04:39:35;;;;;;;9.43;1.70;;;13.20;99.90;;;;;;5093072;28;20211;-78
2023/12/11 04:42:00;;;;;;;7.67;1.40;;;13.20;99.90;;;;;;5074928;28;20574;-78
2023/12/11 04:44:26;;;;;;;8.67;1.20;;;13.20;99.90;;;;;;5092843;28;20289;-78
2023/12/11 04:46:52;;;;;;;6.53;1.33;;;13.20;99.90;;;;;;5093241;28;20566;-78
2023/12/11 04:49:18;;;;;;;10.20;1.80;;;13.20;99.90;;;;;;5092927;28;20251;-77
2023/12/11 04:51:44;;;;;;;7.77;1.60;;;13.30;99.90;;;;;;5093172;28;21018;-78
2023/12/11 04:54:09;;;;;;;9.83;1.60;;;13.30;99.90;;;;;;5092792;28;20168;-78
2023/12/11 04:56:35;;;;;;;7.87;1.70;;;13.30;99.90;;;;;;5074798;28;20200;-78
2023/12/11 04:59:01;;;;;;;9.10;1.63;;;13.40;99.90;;;;;;5057697;28;20209;-78
2023/12/11 05:01:27;;;;;;;9.57;2.10;;;13.40;99.90;;;;;;5074726;28;20671;-77
2023/12/11 05:03:53;;;;;;;7.80;2.03;;;13.40;99.90;;;;;;5090722;28;20570;-78
2023/12/11 05:06:19;;;;;;;6.50;1.70;;;13.50;99.90;;;;;;5074415;28;20640;-78
2023/12/11 05:08:45;;;;;;;7.20;1.80;;;13.50;99.90;;;;;;5092629;28;20582;-77
2023/12/11 05:11:11;;;;;;;21.10;2.90;;;13.50;99.90;;;;;;5074575;28;20582;-77
2023/12/11 05:13:37;;;;;;;9.17;2.23;;;13.50;99.90;;;;;;5070954;28;20583;-77
2023/12/11 05:16:03;;;;;;;11.90;1.70;;;13.50;99.90;;;;;;5071931;28;20245;-77
2023/12/11 05:18:28;;;;;;;4.90;1.70;;;13.60;99.90;;;;;;5074221;28;20175;-78
2023/12/11 05:20:54;;;;;;;6.97;1.50;;;13.60;99.90;;;;;;5092686;28;20605;-77
2023/12/11 05:23:20;;;;;;;6.03;1.60;;;13.60;99.90;;;;;;5074051;28;20264;-77
2023/12/11 05:25:46;;;;;;;9.93;1.50;;;13.60;99.90;;;;;;5074202;28;20299;-78
2023/12/11 05:28:11;;;;;;;10.37;1.73;;;13.60;99.90;;;;;;5092338;28;20215;-77
2023/12/11 05:30:37;;;;;;;6.63;1.40;;;13.60;99.90;;;;;;5074163;28;20175;-78
2023/12/11 05:33:03;;;;;;;6.50;1.20;;;13.50;99.90;;;;;;5073654;28;20176;-77
2023/12/11 05:35:28;;;;;;;7.57;1.83;;;13.50;99.90;;;;;;5073806;28;20283;-78
2023/12/11 05:37:56;;;;;;;6.93;1.30;;;13.40;99.90;;;;;;5040340;28;20171;-78
2023/12/11 05:40:22;;;;;;;7.53;1.57;;;13.40;99.90;;;;;;5073449;28;20210;-78
2023/12/11 05:42:48;;;;;;;6.67;1.73;;;13.40;99.90;;;;;;5057318;28;20570;-78
2023/12/11 05:45:14;;;;;;;4.10;1.30;;;13.30;99.90;;;;;;5073597;28;20270;-78
2023/12/11 05:47:39;;;;;;;11.83;1.60;;;13.20;99.90;;;;;;5073353;28;20176;-78
2023/12/11 05:50:06;;;;;;;6.30;1.80;;;13.20;99.90;;;;;;5089341;28;20581;-79
2023/12/11 05:52:31;;;;;;;7.97;1.50;;;13.10;99.90;;;;;;5070182;28;20184;-79
2023/12/11 05:54:57;;;;;;;5.17;1.30;;;13.10;99.90;;;;;;5078828;28;20718;-79
2023/12/11 05:57:23;;;;;;;11.10;2.07;;;13.00;99.90;;;;;;5062114;28;20638;-79
2023/12/11 05:59:49;;;;;;;10.83;1.70;;;12.90;99.90;;;;;;5086752;28;20678;-78
2023/12/11 06:02:14;;;;;;;6.57;1.23;;;12.90;99.90;;;;;;5072146;28;20263;-78
2023/12/11 06:04:40;;;;;;;7.87;1.47;;;12.80;99.90;;;;;;5073244;28;20223;-79
2023/12/11 06:07:06;;;;;;;4.83;1.40;;;12.80;99.90;;;;;;5073422;28;20182;-79
2023/12/11 06:09:31;;;;;;;10.03;2.20;;;12.70;99.90;;;;;;5073644;28;20588;-78
2023/12/11 06:11:57;;;;;;;7.10;1.23;;;12.70;99.90;;;;;;5086640;28;20266;-78
2023/12/11 06:14:23;;;;;;;8.70;1.40;;;12.60;99.90;;;;;;5072217;28;20553;-78
2023/12/11 06:16:49;;;;;;;7.20;1.60;;;12.60;99.90;;;;;;5073175;28;20663;-78
2023/12/11 06:19:14;;;;;;;10.63;2.10;;;12.50;99.90;;;;;;5073122;28;20660;-77
2023/12/11 06:21:42;;;;;;;11.25;1.25;;;12.50;99.90;;;;;;5070010;28;20212;-78
2023/12/11 06:24:07;;;;;;;5.50;2.03;;;12.40;99.90;;;;;;5070603;28;20168;-78
2023/12/11 06:26:34;;;;;;;7.30;1.33;;;12.40;99.90;;;;;;5072880;28;20189;-78
2023/12/11 06:29:01;;;;;;;5.93;1.23;;;12.30;99.90;;;;;;5052929;28;20198;-79
2023/12/11 06:31:28;;;;;;;8.55;1.52;;;12.30;99.90;;;;;;5091127;28;20574;-79
2023/12/11 06:33:54;;;;;;;8.90;1.40;;;12.20;99.90;;;;;;5072937;28;20221;-80
2023/12/11 06:36:21;;;;;;;7.40;1.80;;;12.20;99.90;;;;;;5082582;28;20211;-79
2023/12/11 06:38:50;;;;;;;7.47;1.40;;;12.10;99.90;;;;;;5072784;28;20585;-80
2023/12/11 06:41:17;;;;;;;11.50;1.30;;;12.10;99.90;;;;;;5073091;28;20175;-79
2023/12/11 06:43:46;;;;;;;5.63;1.00;;;12.10;99.90;;;;;;5073216;28;20164;-79
2023/12/11 06:46:12;;;;;;;6.57;1.52;;;12.10;99.90;;;;;;5074028;28;20195;-79
2023/12/11 06:48:38;;;;;;;8.83;1.27;;;12.10;99.90;;;;;;5073936;28;20232;-79
2023/12/11 06:51:04;;;;;;;6.30;1.27;;;12.00;99.90;;;;;;5091387;28;20577;-79
2023/12/11 06:53:30;;;;;;;6.60;1.33;;;12.00;99.90;;;;;;5072721;28;20221;-79
2023/12/11 06:55:56;;;;;;;5.30;1.50;;;12.10;99.90;;;;;;5091344;28;21209;-80
2023/12/11 06:58:21;;;;;;;5.97;1.20;;;12.10;99.90;;;;;;5073319;28;21131;-81
2023/12/11 07:00:47;;;;;;;14.50;3.13;;;12.10;99.90;;;;;;5072594;28;20664;-80
2023/12/11 07:03:13;;;;;;;8.80;2.20;;;12.10;99.90;;;;;;5056337;28;20182;-80
2023/12/11 07:05:44;;;;;;;11.93;1.97;;;12.10;99.90;;;;;;5090618;28;20632;-80
2023/12/11 07:08:10;;;;;;;8.65;2.10;;;12.10;99.90;;;;;;5074448;28;20226;-80
2023/12/11 07:10:36;;;;;;;8.70;1.77;;;12.10;99.90;;;;;;5073946;28;20203;-80
2023/12/11 07:13:02;;;;;;;11.60;1.53;;;12.10;99.90;;;;;;5093280;28;20202;-80
2023/12/11 07:15:28;;;;;;;5.67;1.60;;;12.10;99.90;;;;;;5073686;28;20615;-84
2023/12/11 07:17:56;;;;;;;8.60;1.75;;;12.10;99.90;;;;;;5087224;28;20592;-85
2023/12/11 07:20:22;;;;;;;11.20;1.80;;;12.10;99.90;;;;;;5072468;28;20199;-85
2023/12/11 07:22:49;;;;;;;8.10;1.55;;;12.20;99.90;;;;;;5091084;28;20609;-85
2023/12/11 07:25:15;;;;;;;4.93;1.45;;;12.20;99.90;;;;;;5087229;28;20188;-84
2023/12/11 07:27:42;;;;;;;9.53;1.80;;;12.30;99.90;;;;;;5071704;28;20183;-83
2023/12/11 07:30:09;;;;;;;6.07;2.05;;;12.30;99.90;;;;;;5093311;28;20585;-84
2023/12/11 07:32:35;;;;;;;7.07;1.73;;;12.40;99.90;;;;;;5065316;28;20186;-83
2023/12/11 07:35:02;;;;;;;11.40;1.70;;;12.50;99.90;;;;;;5070473;28;20626;-84
2023/12/11 07:37:28;;;;;;;9.83;2.70;;;12.60;99.90;;;;;;5086510;28;20631;-84
2023/12/11 07:39:54;;;;;;;12.37;2.10;;;12.60;99.90;;;;;;5078647;28;21077;-84
2023/12/11 07:42:19;;;;;;;10.00;1.50;;;12.70;99.90;;;;;;5075718;28;20172;-84
2023/12/11 07:44:45;;;;;;;14.93;2.27;;;12.80;99.90;;;;;;5072518;28;20211;-84
2023/12/11 07:47:11;;;;;;;4.67;1.23;;;12.80;99.90;;;;;;5073757;28;20261;-85
2023/12/11 07:49:37;;;;;;;6.53;1.97;;;12.90;99.90;;;;;;5076418;28;20243;-85
2023/12/11 07:52:03;;;;;;;9.13;3.83;;;12.90;99.90;;;;;;5094321;28;20180;-85
2023/12/11 07:54:29;;;;;;;5.10;1.97;;;13.00;99.90;;;;;;5094252;28;21157;-85
2023/12/11 07:56:55;;;;;;;8.90;2.10;;;13.00;99.90;;;;;;5055869;28;20671;-84
2023/12/11 07:59:20;;;;;;;9.63;2.30;;;13.10;99.90;;;;;;5074374;28;20729;-85
2023/12/11 08:01:47;;;;;;;11.27;1.77;;;13.10;99.90;;;;;;5073821;28;20254;-84
2023/12/11 08:04:13;;;;;;;10.53;1.67;;;13.20;99.90;;;;;;5059399;28;20337;-84
2023/12/11 08:06:41;;;;;;;9.30;2.30;;;13.20;99.90;;;;;;5077837;28;20707;-85
2023/12/11 08:09:08;;;;;;;10.90;2.00;;;13.20;99.90;;;;;;5075994;28;20258;-85
2023/12/11 08:11:33;;;;;;;9.33;2.30;;;13.30;99.90;;;;;;5060486;28;20675;-85
2023/12/11 08:13:59;;;;;;;7.43;1.93;;;13.30;99.90;;;;;;5097126;28;20578;-85
2023/12/11 08:16:25;;;;;;;8.30;1.77;;;13.30;99.90;;;;;;5079838;28;20607;-84
2023/12/11 08:18:51;;;;;;;9.43;1.30;;;13.40;99.90;;;;;;5071890;28;20194;-85
2023/12/11 08:21:19;;;;;;;8.37;1.67;;;13.40;99.90;;;;;;5102039;28;21146;-81
2023/12/11 08:23:52;;;;;;;6.67;1.33;;;13.40;99.90;;;;;;5087146;28;21158;-81
2023/12/11 08:26:18;;;;;;;7.17;1.50;;;13.40;99.90;;;;;;5076312;28;20610;-81
2023/12/11 08:28:45;;;;;;;11.00;1.93;;;13.50;99.90;;;;;;5085390;28;20673;-82
2023/12/11 08:31:11;;;;;;;12.73;2.83;;;13.50;99.90;;;;;;5078550;28;20576;-83
2023/12/11 08:33:37;;;;;;;7.87;2.07;;;13.50;99.90;;;;;;5076246;28;20589;-83
2023/12/11 08:36:04;;;;;;;9.20;1.77;;;13.50;99.90;;;;;;5068708;28;20617;-80
2023/12/11 08:38:30;;;;;;;6.23;1.40;;;13.50;99.90;;;;;;5073644;28;20626;-80
2023/12/11 08:40:57;;;;;;;14.37;1.80;;;13.60;99.90;;;;;;5094148;28;20630;-82
2023/12/11 08:43:23;;;;;;;6.23;2.10;;;13.70;99.90;;;;;;5041723;28;20578;-82
2023/12/11 08:45:49;;;;;;;9.10;2.80;;;13.70;99.90;;;;;;5075355;28;20624;-80
2023/12/11 08:48:15;;;;;;;8.90;1.70;;;13.70;99.90;;;;;;5093405;28;20581;-81
2023/12/11 08:50:40;;;;;;;8.60;1.67;;;13.80;99.90;;;;;;5075115;28;20600;-80
2023/12/11 08:53:06;;;;;;;7.00;1.60;;;13.80;99.90;;;;;;5096838;28;20187;-82
2023/12/11 08:55:32;;;;;;;9.80;2.00;;;13.90;99.90;;;;;;5093012;28;20544;-81
2023/12/11 08:57:58;;;;;;;11.67;2.20;;;13.90;99.90;;;;;;5094241;28;20824;-81
2023/12/11 09:00:24;;;;;;;10.00;1.90;;;14.00;99.90;;;;;;5093182;28;20640;-81
2023/12/11 09:02:51;;;;;;;9.63;2.10;;;14.00;99.90;;;;;;5081546;28;20179;-79
2023/12/11 09:05:17;;;;;;;8.03;2.23;;;14.00;99.90;;;;;;5085442;28;20696;-80
2023/12/11 09:07:43;;;;;;;8.40;1.60;;;14.10;99.90;;;;;;5078444;28;20582;-80
2023/12/11 09:10:09;;;;;;;8.03;2.13;;;14.10;99.90;;;;;;5058323;28;20601;-80
2023/12/11 09:12:39;;;;;;;11.10;2.13;;;14.10;99.90;;;;;;5060527;28;20582;-80
2023/12/11 09:15:06;;;;;;;9.90;1.77;;;14.10;99.90;;;;;;5053343;28;20617;-80
2023/12/11 09:17:32;;;;;;;12.20;2.40;;;14.10;99.90;;;;;;5099460;28;21182;-79
2023/12/11 09:19:58;;;;;;;12.20;1.87;;;14.20;99.90;;;;;;5080863;28;20724;-80
2023/12/11 09:22:25;;;;;;;10.63;2.07;;;14.20;99.90;;;;;;5103649;28;21080;-79
2023/12/11 09:24:51;;;;;;;8.13;1.70;;;14.20;99.90;;;;;;5071952;28;20230;-80
2023/12/11 09:27:17;;;;;;;5.60;1.77;;;14.20;99.90;;;;;;5100630;28;20582;-80
2023/12/11 09:29:48;;;;;;;8.20;1.40;;;14.30;99.90;;;;;;5075902;28;20575;-79
2023/12/11 09:32:13;;;;;;;7.50;1.80;;;14.30;99.90;;;;;;5096014;28;20589;-79
2023/12/11 09:34:39;;;;;;;6.30;1.67;;;14.30;99.90;;;;;;5067397;28;20618;-80
2023/12/11 09:37:05;;;;;;;6.60;2.07;;;14.30;99.90;;;;;;5086081;28;20254;-79
2023/12/11 09:39:31;;;;;;;10.33;2.27;;;14.30;99.90;;;;;;5094154;28;20221;-80
2023/12/11 09:41:57;;;;;;;7.07;1.97;;;14.40;99.90;;;;;;5095706;28;20175;-79
2023/12/11 09:44:23;;;;;;;9.33;1.53;;;14.40;99.90;;;;;;5087809;28;20202;-79
2023/12/11 09:47:05;;;;;;;7.70;1.50;;;14.30;99.90;;;;;;5084159;28;20602;-83
2023/12/11 09:49:30;;;;;;;7.77;1.93;;;14.40;99.90;;;;;;5092296;28;20585;-84
2023/12/11 09:51:56;;;;;;;13.40;1.90;;;14.40;99.90;;;;;;5071110;28;20597;-84
2023/12/11 09:54:22;;;;;;;7.20;1.53;;;14.40;99.90;;;;;;5045410;28;20183;-83
2023/12/11 09:56:49;;;;;;;8.93;1.80;;;14.40;99.90;;;;;;5074844;28;20179;-84
2023/12/11 09:59:16;;;;;;;11.47;2.80;;;14.40;99.90;;;;;;5074377;28;20647;-79
2023/12/11 10:01:41;;;;;;;8.17;2.37;;;14.50;99.90;;;;;;5092225;28;20566;-79
2023/12/11 10:04:08;;;;;;;8.37;1.70;;;14.50;99.90;;;;;;5053809;28;20639;-79
2023/12/11 10:06:33;;;;;;;5.93;1.30;;;14.40;99.90;;;;;;5091228;28;20268;-79
2023/12/11 10:08:59;;;;;;;9.07;1.80;;;14.50;99.90;;;;;;5057801;28;20581;-79
2023/12/11 10:11:26;;;;;;;10.53;1.43;;;14.50;99.90;;;;;;5074135;28;20940;-79
2023/12/11 10:13:52;;;;;;;8.80;2.07;;;14.40;99.90;;;;;;5090713;28;20180;-79
2023/12/11 10:16:31;;;;;;;7.83;1.20;;;14.40;99.90;;;;;;5092268;28;20705;-79
2023/12/11 10:18:57;;;;;;;7.77;1.40;;;14.40;99.90;;;;;;5091944;28;20589;-79
2023/12/11 10:21:26;;;;;;;9.83;1.47;;;14.40;99.90;;;;;;5073988;28;20593;-79
2023/12/11 10:24:13;;;;;;;9.20;2.00;;;14.40;99.90;;;;;;5073576;28;20582;-79
2023/12/11 10:26:45;;;;;;;9.87;2.13;;;14.40;99.90;;;;;;5053750;28;20575;-79
2023/12/11 10:29:24;;;;;;;6.50;2.63;;;14.30;99.90;;;;;;5069723;28;20594;-79
2023/12/11 10:31:51;;;;;;;8.87;1.80;;;14.40;99.90;;;;;;5073519;28;20581;-80
2023/12/11 10:34:17;;;;;;;6.87;1.77;;;14.40;99.90;;;;;;5072739;28;20592;-79
2023/12/11 10:36:50;;;;;;;7.17;1.80;;;14.30;99.90;;;;;;5073789;28;20589;-80
2023/12/11 10:39:18;;;;;;;9.53;2.67;;;14.30;99.90;;;;;;5073314;28;20661;-79
2023/12/11 10:41:45;;;;;;;7.17;1.73;;;14.30;99.90;;;;;;5040376;28;21137;-79
2023/12/11 10:44:25;;;;;;;6.77;1.83;;;14.40;99.90;;;;;;5087675;28;20953;-80
2023/12/11 10:46:54;;;;;;;6.00;2.33;;;14.30;99.90;;;;;;5063520;28;20594;-79
2023/12/11 10:49:22;;;;;;;8.23;2.03;;;14.30;99.90;;;;;;5088410;28;21219;-79
2023/12/11 10:51:48;;;;;;;8.93;1.80;;;14.40;99.90;;;;;;5069497;28;20601;-79
2023/12/11 10:54:14;;;;;;;10.50;1.50;;;14.40;99.90;;;;;;5087320;28;20611;-80
2023/12/11 10:56:43;;;;;;;8.23;2.10;;;14.40;99.90;;;;;;5052962;28;20587;-79
2023/12/11 10:59:11;;;;;;;5.00;1.83;;;14.40;99.90;;;;;;5043777;28;20226;-79
2023/12/11 11:01:41;;;;;;;9.90;2.33;;;14.50;99.90;;;;;;5072320;28;20620;-79
2023/12/11 11:04:11;;;;;;;7.80;1.43;;;14.50;99.90;;;;;;5069362;28;20587;-79
2023/12/11 11:06:46;;;;;;;8.33;2.00;;;14.50;99.90;;;;;;5072648;28;20696;-79
2023/12/11 11:09:19;;;;;;;10.73;1.80;;;14.50;99.90;;;;;;5073558;28;20584;-79
2023/12/11 11:11:52;;;;;;;7.53;2.17;;;14.50;99.90;;;;;;5056362;28;20590;-79
2023/12/11 11:14:41;;;;;;;7.57;1.50;;;14.50;99.90;;;;;;5072579;28;20574;-79
2023/12/11 11:17:09;;;;;;;11.23;2.10;;;14.50;99.90;;;;;;5091117;28;20578;-80
2023/12/11 11:19:35;;;;;;;10.83;2.30;;;14.50;99.90;;;;;;5072975;28;20629;-79
2023/12/11 11:22:03;;;;;;;10.07;2.07;;;14.50;99.90;;;;;;5090910;28;20582;-79
2023/12/11 11:24:30;;;;;;;7.07;2.00;;;14.50;99.90;;;;;;5090588;28;20609;-79
2023/12/11 11:26:57;;;;;;;7.80;2.37;;;14.40;99.90;;;;;;5072961;28;21011;-79
2023/12/11 11:29:42;;;;;;;11.30;2.23;;;14.50;99.90;;;;;;5072893;28;20635;-79
2023/12/11 11:32:12;;;;;;;6.60;2.33;;;14.40;99.90;;;;;;5076125;28;20594;-79
2023/12/11 11:34:40;;;;;;;13.37;3.00;;;14.40;99.90;;;;;;5073328;28;20625;-79
2023/12/11 11:37:07;;;;;;;11.07;2.87;;;14.40;99.90;;;;;;5076577;28;20590;-79
2023/12/11 11:39:58;;;;;;;10.50;2.30;;;14.40;99.90;;;;;;5073639;28;20728;-79
2023/12/11 11:42:25;;;;;;;9.20;2.20;;;14.30;99.90;;;;;;5072757;28;21137;-78
2023/12/11 11:45:01;;;;;;;8.93;1.63;;;14.30;99.90;;;;;;5093136;28;21037;-78
2023/12/11 11:47:28;;;;;;;11.03;2.87;;;14.30;99.90;;;;;;5096456;28;20645;-79
2023/12/11 11:50:02;;;;;;;11.30;1.83;;;14.20;99.90;;;;;;5089389;28;20580;-79
2023/12/11 11:52:28;;;;;;;7.53;1.90;;;14.20;99.90;;;;;;5090627;28;20579;-79
2023/12/11 11:55:03;;;;;;;10.30;3.17;;;14.20;99.90;;;;;;5090650;28;20601;-79
2023/12/11 11:57:29;;;;;;;7.37;2.80;;;14.10;99.90;;;;;;5072214;28;20581;-79
2023/12/11 11:59:55;;;;;;;10.20;3.07;;;14.10;99.90;;;;;;5056092;28;20636;-79
2023/12/11 12:02:23;;;;;;;10.23;3.17;;;14.00;99.90;;;;;;5081470;28;20590;-78
2023/12/11 12:04:48;;;;;;;7.87;3.77;;;13.90;99.90;;;;;;5091572;28;20214;-79
2023/12/11 12:07:14;;;;;;;8.00;2.93;;;13.90;99.90;;;;;;5090646;28;20582;-79
2023/12/11 12:09:40;;;;;;;8.80;2.80;;;13.90;99.90;;;;;;5072720;28;20195;-79
2023/12/11 12:12:13;;;;;;;12.40;2.73;;;13.80;99.90;;;;;;5073354;28;20313;-79
2023/12/11 12:14:39;;;;;;;6.47;2.87;;;13.80;99.90;;;;;;5079126;28;20621;-79
2023/12/11 12:17:11;;;;;;;10.30;3.00;;;13.70;99.90;;;;;;5098439;28;20586;-79
2023/12/11 12:19:37;;;;;;;10.97;2.83;;;13.70;99.90;;;;;;5078874;28;20207;-78
2023/12/11 12:22:03;;;;;;;10.30;2.13;;;13.60;99.90;;;;;;5097372;28;20673;-79
2023/12/11 12:24:30;;;;;;;6.87;2.23;;;13.50;99.90;;;;;;5093213;28;20912;-78
2023/12/11 12:27:09;;;;;;;13.30;4.57;;;13.40;99.90;;;;;;5075947;28;20584;-78
2023/12/11 12:29:35;;;;;;;7.33;2.03;;;13.30;99.90;;;;;;5075861;28;21218;-79
2023/12/11 12:32:02;;;;;;;8.90;2.63;;;13.20;99.90;;;;;;5060372;28;20589;-78
2023/12/11 12:34:30;;;;;;;7.87;1.60;;;13.10;99.90;;;;;;5093119;28;20659;-77
2023/12/11 12:36:59;;;;;;;10.07;2.03;;;12.90;99.90;;;;;;5042109;28;20606;-78
2023/12/11 12:39:25;;;;;;;6.77;1.60;;;12.80;99.90;;;;;;5087391;28;20672;-78
2023/12/11 12:41:51;;;;;;;4.45;1.90;;;12.70;99.90;;;;;;5072125;28;20575;-78